createdAt,value
2022-09-28T00:01:18.405Z,11.59
2022-09-28T00:03:49.013Z,11.62
2022-09-28T00:06:20.098Z,11.55
2022-09-28T00:08:51.957Z,11.43
2022-09-28T00:11:22.865Z,11.41
2022-09-28T00:13:53.433Z,11.37
2022-09-28T00:16:25.555Z,11.30
2022-09-28T00:18:54.086Z,11.32
2022-09-28T00:21:23.912Z,11.29
2022-09-28T00:24:14.530Z,11.20
2022-09-28T00:26:46.379Z,11.08
2022-09-28T00:29:22.275Z,10.98
2022-09-28T00:31:56.934Z,10.90
2022-09-28T00:34:25.020Z,10.72
2022-09-28T00:36:52.974Z,10.66
2022-09-28T00:39:22.500Z,10.58
2022-09-28T00:41:50.883Z,10.51
2022-09-28T00:44:39.300Z,10.50
2022-09-28T00:47:24.254Z,10.47
2022-09-28T00:49:59.806Z,10.49
2022-09-28T00:52:33.526Z,10.57
2022-09-28T00:55:07.324Z,10.60
2022-09-28T00:57:38.519Z,10.67
2022-09-28T01:00:10.607Z,10.72
2022-09-28T01:02:38.415Z,10.78
2022-09-28T01:05:10.274Z,10.76
2022-09-28T01:07:40.124Z,10.69
2022-09-28T01:10:09.963Z,10.65
2022-09-28T01:12:38.981Z,10.64
2022-09-28T01:15:08.324Z,10.69
2022-09-28T01:18:00.071Z,10.68
2022-09-28T01:21:01.339Z,10.79
2022-09-28T01:23:52.302Z,10.81
2022-09-28T01:26:45.950Z,10.84
2022-09-28T01:29:29.475Z,10.86
2022-09-28T01:32:15.111Z,10.77
2022-09-28T01:34:54.730Z,10.81
2022-09-28T01:37:36.228Z,10.88
2022-09-28T01:40:10.478Z,11.01
2022-09-28T01:42:44.095Z,10.99
2022-09-28T01:45:22.630Z,10.98
2022-09-28T01:47:59.965Z,11.03
2022-09-28T01:50:34.105Z,10.98
2022-09-28T01:53:12.413Z,10.82
2022-09-28T01:55:46.173Z,10.74
2022-09-28T01:58:24.481Z,10.79
2022-09-28T02:01:01.463Z,10.92
2022-09-28T02:03:39.773Z,10.94
2022-09-28T02:06:16.232Z,10.79
2022-09-28T02:08:50.629Z,10.75
2022-09-28T02:11:22.244Z,10.83
2022-09-28T02:14:01.012Z,10.97
2022-09-28T02:16:38.049Z,11.03
2022-09-28T02:19:09.824Z,11.01
2022-09-28T02:21:49.668Z,10.90
2022-09-28T02:24:30.983Z,10.93
2022-09-28T02:27:05.625Z,10.90
2022-09-28T02:29:36.272Z,10.89
2022-09-28T02:32:04.129Z,10.77
2022-09-28T02:34:32.825Z,10.82
2022-09-28T02:37:01.966Z,10.78
2022-09-28T02:39:31.592Z,10.80
2022-09-28T02:42:17.174Z,10.86
2022-09-28T02:45:08.101Z,10.83
2022-09-28T02:48:00.657Z,10.95
2022-09-28T02:50:42.673Z,10.85
2022-09-28T02:53:35.229Z,10.81
2022-09-28T02:56:26.673Z,10.69
2022-09-28T02:59:07.943Z,10.77
2022-09-28T03:01:50.200Z,10.52
2022-09-28T03:04:36.272Z,10.51
2022-09-28T03:07:16.345Z,10.44
2022-09-28T03:09:58.071Z,10.55
2022-09-28T03:12:29.851Z,10.59
2022-09-28T03:15:12.341Z,10.69
2022-09-28T03:17:42.556Z,10.57
2022-09-28T03:20:11.678Z,10.52
2022-09-28T03:22:39.581Z,10.44
2022-09-28T03:25:09.794Z,10.46
2022-09-28T03:27:39.815Z,10.48
2022-09-28T03:30:10.620Z,10.62
2022-09-28T03:32:40.165Z,10.57
2022-09-28T03:35:12.094Z,10.58
2022-09-28T03:37:42.643Z,10.61
2022-09-28T03:40:11.123Z,10.65
2022-09-28T03:42:38.963Z,10.61
2022-09-28T03:45:07.878Z,10.48
2022-09-28T03:47:36.044Z,10.52
2022-09-28T03:50:06.890Z,10.37
2022-09-28T03:52:36.277Z,10.37
2022-09-28T03:55:04.746Z,10.35
2022-09-28T03:57:33.785Z,10.29
2022-09-28T04:00:02.108Z,10.31
2022-09-28T04:02:32.292Z,10.25
2022-09-28T04:05:00.274Z,10.30
2022-09-28T04:07:31.063Z,10.35
2022-09-28T04:10:01.108Z,10.35
2022-09-28T04:12:29.327Z,10.40
2022-09-28T04:14:59.492Z,10.53
2022-09-28T04:17:30.190Z,10.56
2022-09-28T04:19:58.280Z,10.56
2022-09-28T04:22:41.266Z,10.63
2022-09-28T04:25:11.358Z,10.67
2022-09-28T04:27:58.281Z,10.56
2022-09-28T04:30:26.420Z,10.57
2022-09-28T04:32:54.201Z,10.61
2022-09-28T04:35:22.361Z,10.52
2022-09-28T04:37:50.466Z,10.41
2022-09-28T04:40:19.635Z,10.38
2022-09-28T04:42:54.164Z,10.37
2022-09-28T04:45:23.439Z,10.31
2022-09-28T04:47:51.933Z,10.23
2022-09-28T04:50:29.516Z,10.18
2022-09-28T04:53:15.817Z,10.23
2022-09-28T04:55:45.188Z,10.22
2022-09-28T04:58:13.136Z,10.17
2022-09-28T05:00:40.931Z,10.20
2022-09-28T05:03:21.019Z,10.15
2022-09-28T05:06:16.542Z,10.29
2022-09-28T05:08:47.181Z,10.32
2022-09-28T05:11:18.268Z,10.29
2022-09-28T05:13:46.201Z,10.29
2022-09-28T05:16:17.467Z,10.35
2022-09-28T05:19:08.086Z,10.33
2022-09-28T05:21:35.920Z,10.39
2022-09-28T05:24:07.377Z,10.46
2022-09-28T05:26:38.528Z,10.37
2022-09-28T05:29:08.837Z,10.36
2022-09-28T05:31:51.983Z,10.41
2022-09-28T05:34:35.173Z,10.49
2022-09-28T05:37:03.148Z,10.47
2022-09-28T05:39:32.131Z,10.42
2022-09-28T05:42:01.492Z,10.57
2022-09-28T05:44:31.908Z,10.51
2022-09-28T05:46:59.757Z,10.53
2022-09-28T05:49:29.167Z,10.66
2022-09-28T05:51:57.367Z,10.61
2022-09-28T05:54:26.029Z,10.52
2022-09-28T05:56:54.065Z,10.49
2022-09-28T05:59:23.198Z,10.64
2022-09-28T06:01:50.948Z,10.59
2022-09-28T06:04:18.843Z,10.58
2022-09-28T06:06:49.056Z,10.65
2022-09-28T06:09:17.877Z,10.58
2022-09-28T06:12:24.113Z,10.51
2022-09-28T06:14:58.546Z,10.63
2022-09-28T06:17:26.379Z,10.64
2022-09-28T06:20:14.652Z,10.73
2022-09-28T06:22:57.244Z,10.83
2022-09-28T06:25:27.502Z,10.91
2022-09-28T06:27:57.234Z,11.05
2022-09-28T06:30:29.619Z,10.89
2022-09-28T06:33:01.114Z,10.75
2022-09-28T06:35:31.569Z,10.84
2022-09-28T06:38:00.124Z,10.87
2022-09-28T06:40:29.155Z,10.91
2022-09-28T06:42:59.295Z,10.73
2022-09-28T06:45:53.833Z,10.69
2022-09-28T06:48:31.643Z,10.77
2022-09-28T06:51:00.615Z,10.71
2022-09-28T06:53:31.647Z,10.75
2022-09-28T06:56:02.961Z,10.97
2022-09-28T06:58:32.222Z,10.80
2022-09-28T07:01:02.450Z,10.82
2022-09-28T07:03:37.159Z,10.91
2022-09-28T07:06:47.649Z,10.82
2022-09-28T07:09:37.299Z,10.87
2022-09-28T07:12:13.071Z,10.93
2022-09-28T07:14:50.193Z,10.95
2022-09-28T07:17:20.460Z,10.92
2022-09-28T07:19:52.541Z,11.09
2022-09-28T07:22:34.348Z,11.15
2022-09-28T07:25:09.842Z,11.19
2022-09-28T07:27:43.919Z,11.39
2022-09-28T07:30:38.535Z,11.25
2022-09-28T07:33:16.126Z,11.17
2022-09-28T07:35:57.028Z,11.08
2022-09-28T07:38:29.359Z,11.10
2022-09-28T07:41:14.156Z,11.07
2022-09-28T07:43:50.118Z,11.03
2022-09-28T07:46:18.093Z,11.13
2022-09-28T07:48:58.130Z,11.13
2022-09-28T07:51:36.559Z,11.17
2022-09-28T07:54:26.287Z,11.12
2022-09-28T07:57:22.412Z,11.13
2022-09-28T08:00:17.865Z,11.03
2022-09-28T08:02:48.973Z,11.15
2022-09-28T08:05:25.181Z,11.34
2022-09-28T08:07:57.634Z,11.42
2022-09-28T08:10:26.608Z,11.19
2022-09-28T08:13:27.047Z,11.27
2022-09-28T08:16:01.917Z,11.62
2022-09-28T08:18:45.033Z,11.40
2022-09-28T08:21:33.014Z,11.34
2022-09-28T08:24:01.518Z,11.35
2022-09-28T08:26:29.324Z,11.42
2022-09-28T08:28:57.364Z,11.28
2022-09-28T08:31:43.716Z,11.51
2022-09-28T08:34:22.548Z,11.48
2022-09-28T08:37:12.441Z,11.33
2022-09-28T08:39:58.883Z,11.52
2022-09-28T08:42:53.166Z,11.53
2022-09-28T08:45:39.678Z,11.61
2022-09-28T08:48:39.878Z,11.67
2022-09-28T08:51:42.181Z,11.85
2022-09-28T08:54:37.553Z,11.73
2022-09-28T08:57:19.241Z,11.73
2022-09-28T08:59:52.597Z,11.78
2022-09-28T09:02:36.158Z,11.93
2022-09-28T09:05:19.027Z,12.04
2022-09-28T09:08:31.811Z,12.07
2022-09-28T09:11:22.972Z,12.23
2022-09-28T09:14:16.529Z,12.41
2022-09-28T09:17:00.598Z,12.62
2022-09-28T09:19:53.299Z,12.61
2022-09-28T09:22:40.823Z,12.77
2022-09-28T09:25:20.510Z,13.01
2022-09-28T09:28:33.596Z,12.85
2022-09-28T09:31:22.570Z,13.16
2022-09-28T09:34:16.593Z,13.20
2022-09-28T09:37:18.338Z,13.67
2022-09-28T09:40:32.191Z,14.29
2022-09-28T09:44:07.201Z,14.62
2022-09-28T09:47:07.938Z,14.57
2022-09-28T09:49:51.575Z,14.58
2022-09-28T09:52:26.902Z,14.53
2022-09-28T09:55:03.350Z,14.91
2022-09-28T09:57:44.627Z,15.18
2022-09-28T10:00:29.637Z,15.87
2022-09-28T10:03:23.577Z,16.36
2022-09-28T10:06:00.300Z,16.75
2022-09-28T10:08:32.488Z,16.63
2022-09-28T10:11:09.334Z,16.29
2022-09-28T10:13:41.331Z,15.80
2022-09-28T10:16:33.154Z,15.96
2022-09-28T10:19:02.745Z,16.03
2022-09-28T10:22:06.336Z,17.03
2022-09-28T10:24:41.978Z,17.15
2022-09-28T10:27:16.755Z,17.54
2022-09-28T10:29:52.351Z,17.87
2022-09-28T10:32:25.537Z,18.18
2022-09-28T10:35:16.880Z,17.98
2022-09-28T10:37:54.164Z,17.75
2022-09-28T10:40:45.653Z,18.29
2022-09-28T10:43:23.852Z,18.34
2022-09-28T10:46:07.551Z,18.77
2022-09-28T10:48:51.646Z,19.22
2022-09-28T10:51:40.153Z,19.24
2022-09-28T10:54:17.755Z,19.25
2022-09-28T10:56:49.251Z,18.80
2022-09-28T10:59:40.828Z,18.39
2022-09-28T11:02:36.464Z,18.48
2022-09-28T11:05:29.888Z,18.14
2022-09-28T11:08:05.536Z,17.20
2022-09-28T11:10:40.301Z,17.43
2022-09-28T11:13:14.586Z,17.39
2022-09-28T11:15:47.530Z,17.15
2022-09-28T11:18:31.367Z,16.86
2022-09-28T11:21:17.507Z,16.96
2022-09-28T11:24:07.221Z,16.69
2022-09-28T11:26:42.839Z,16.69
2022-09-28T11:29:23.403Z,17.22
2022-09-28T11:32:15.669Z,17.71
2022-09-28T11:35:04.571Z,18.14
2022-09-28T11:37:58.772Z,18.59
2022-09-28T11:41:06.424Z,18.35
2022-09-28T11:44:01.788Z,18.44
2022-09-28T11:46:45.952Z,19.14
2022-09-28T11:49:30.160Z,19.21
2022-09-28T11:52:08.173Z,18.95
2022-09-28T11:54:47.329Z,19.11
2022-09-28T11:57:23.035Z,18.27
2022-09-28T12:00:00.408Z,17.79
2022-09-28T12:02:40.618Z,17.48
2022-09-28T12:05:22.753Z,17.33
2022-09-28T12:07:59.072Z,17.07
2022-09-28T12:10:58.019Z,17.29
2022-09-28T12:13:51.422Z,16.68
2022-09-28T12:16:53.714Z,16.59
2022-09-28T12:19:22.519Z,16.21
2022-09-28T12:21:55.382Z,16.32
2022-09-28T12:24:29.245Z,16.39
2022-09-28T12:27:06.018Z,16.83
2022-09-28T12:29:43.962Z,17.00
2022-09-28T12:32:26.524Z,17.44
2022-09-28T12:34:55.460Z,17.50
2022-09-28T12:38:01.130Z,17.77
2022-09-28T12:40:41.492Z,17.79
2022-09-28T12:43:54.722Z,18.01
2022-09-28T12:46:49.080Z,18.69
2022-09-28T12:51:02.365Z,19.34
2022-09-28T12:53:07.292Z,20.10
2022-09-28T12:55:56.405Z,19.96
2022-09-28T12:59:00.882Z,20.20
2022-09-28T13:02:16.102Z,20.15
2022-09-28T13:05:12.139Z,19.63
2022-09-28T13:07:50.592Z,19.09
2022-09-28T13:10:33.115Z,18.77
2022-09-28T13:13:27.373Z,18.72
2022-09-28T13:16:11.815Z,18.86
2022-09-28T13:18:49.094Z,19.06
2022-09-28T13:21:34.618Z,18.51
2022-09-28T13:24:20.969Z,18.40
2022-09-28T13:27:04.675Z,19.06
2022-09-28T13:29:34.840Z,19.30
2022-09-28T13:32:08.521Z,19.51
2022-09-28T13:34:39.508Z,19.58
2022-09-28T13:37:25.778Z,19.99
2022-09-28T13:39:58.638Z,20.81
2022-09-28T13:43:12.050Z,20.99
2022-09-28T13:46:08.616Z,20.65
2022-09-28T13:48:53.125Z,20.46
2022-09-28T13:51:38.252Z,21.15
2022-09-28T13:54:37.139Z,21.64
2022-09-28T13:57:21.404Z,22.71
2022-09-28T14:00:02.792Z,22.28
2022-09-28T14:02:46.640Z,22.26
2022-09-28T14:05:47.256Z,21.84
2022-09-28T14:08:34.834Z,21.59
2022-09-28T14:11:53.536Z,21.73
2022-09-28T14:14:45.762Z,20.57
2022-09-28T14:18:02.530Z,19.89
2022-09-28T14:20:31.477Z,19.12
2022-09-28T14:23:50.541Z,18.52
2022-09-28T14:27:27.343Z,19.04
2022-09-28T14:30:16.278Z,19.55
2022-09-28T14:32:54.085Z,19.12
2022-09-28T14:35:32.728Z,19.30
2022-09-28T14:38:25.242Z,20.08
2022-09-28T14:41:11.076Z,20.61
2022-09-28T14:44:03.720Z,20.49
2022-09-28T14:46:44.223Z,20.17
2022-09-28T14:49:47.904Z,20.06
2022-09-28T14:52:39.146Z,20.77
2022-09-28T14:55:19.524Z,21.68
2022-09-28T14:57:56.681Z,21.48
2022-09-28T15:00:30.319Z,21.49
2022-09-28T15:03:05.946Z,21.53
2022-09-28T15:05:44.493Z,21.06
2022-09-28T15:08:12.704Z,20.60
2022-09-28T15:10:46.872Z,20.37
2022-09-28T15:13:24.075Z,20.32
2022-09-28T15:15:59.416Z,20.25
2022-09-28T15:19:23.097Z,19.69
2022-09-28T15:21:52.800Z,19.00
2022-09-28T15:24:27.707Z,18.70
2022-09-28T15:26:56.714Z,18.20
2022-09-28T15:29:30.945Z,17.67
2022-09-28T15:31:59.271Z,17.44
2022-09-28T15:34:48.925Z,17.11
2022-09-28T15:37:21.971Z,17.16
2022-09-28T15:39:52.556Z,16.95
2022-09-28T15:42:22.658Z,16.76
2022-09-28T15:45:26.588Z,16.37
2022-09-28T15:48:18.254Z,16.19
2022-09-28T15:51:03.018Z,16.01
2022-09-28T15:53:31.888Z,16.07
2022-09-28T15:56:10.779Z,16.01
2022-09-28T15:58:40.056Z,15.94
2022-09-28T16:01:36.579Z,15.90
2022-09-28T16:04:38.575Z,15.84
2022-09-28T16:07:28.466Z,15.77
2022-09-28T16:10:04.782Z,15.75
2022-09-28T16:12:45.942Z,15.69
2022-09-28T16:15:21.133Z,15.57
2022-09-28T16:17:54.974Z,15.55
2022-09-28T16:20:29.421Z,15.51
2022-09-28T16:23:05.809Z,15.41
2022-09-28T16:25:39.162Z,15.35
2022-09-28T16:28:08.835Z,15.30
2022-09-28T16:30:36.815Z,15.35
2022-09-28T16:33:27.580Z,15.38
2022-09-28T16:35:55.741Z,15.42
2022-09-28T16:38:24.212Z,15.48
2022-09-28T16:40:54.614Z,15.43
2022-09-28T16:43:27.668Z,15.29
2022-09-28T16:45:58.335Z,15.35
2022-09-28T16:48:32.071Z,15.32
2022-09-28T16:50:59.986Z,15.35
2022-09-28T16:53:46.645Z,15.39
2022-09-28T16:56:15.167Z,15.29
2022-09-28T16:58:44.097Z,15.28
2022-09-28T17:01:15.260Z,15.32
2022-09-28T17:03:47.626Z,15.38
2022-09-28T17:06:18.489Z,15.37
2022-09-28T17:08:46.757Z,15.45
2022-09-28T17:11:23.373Z,15.51
2022-09-28T17:13:58.827Z,15.56
2022-09-28T17:19:23.250Z,15.58
2022-09-28T17:21:52.565Z,15.55
2022-09-28T17:24:21.412Z,15.59
2022-09-28T17:26:51.956Z,15.61
2022-09-28T17:29:20.390Z,15.57
2022-09-28T17:31:48.639Z,15.52
2022-09-28T17:34:17.598Z,15.50
2022-09-28T17:36:47.811Z,15.51
2022-09-28T17:39:18.933Z,15.40
2022-09-28T17:41:47.547Z,15.34
2022-09-28T17:44:16.203Z,15.33
2022-09-28T17:46:48.509Z,15.03
2022-09-28T17:49:17.075Z,14.73
2022-09-28T17:51:50.244Z,14.32
2022-09-28T17:54:20.781Z,14.00
2022-09-28T17:56:48.772Z,13.84
2022-09-28T17:59:19.070Z,13.68
2022-09-28T18:01:48.691Z,13.74
2022-09-28T18:04:39.804Z,13.59
2022-09-28T18:07:08.228Z,13.75
2022-09-28T18:09:37.305Z,13.70
2022-09-28T18:12:06.409Z,13.55
2022-09-28T18:14:36.012Z,13.47
2022-09-28T18:17:07.759Z,13.27
2022-09-28T18:19:37.075Z,13.15
2022-09-28T18:22:06.215Z,13.06
2022-09-28T18:24:34.045Z,12.93
2022-09-28T18:27:02.299Z,12.82
2022-09-28T18:29:33.286Z,12.81
2022-09-28T18:32:03.596Z,12.77
2022-09-28T18:34:36.230Z,12.74
2022-09-28T18:37:07.306Z,12.73
2022-09-28T18:39:38.716Z,12.69
2022-09-28T18:42:09.544Z,12.70
2022-09-28T18:44:39.312Z,12.72
2022-09-28T18:47:09.170Z,12.67
2022-09-28T18:49:39.780Z,12.64
2022-09-28T18:52:11.393Z,12.53
2022-09-28T18:54:43.265Z,12.52
2022-09-28T18:57:11.777Z,12.55
2022-09-28T18:59:40.011Z,12.56
2022-09-28T19:02:10.697Z,12.58
2022-09-28T19:04:40.652Z,12.47
2022-09-28T19:07:10.577Z,12.30
2022-09-28T19:09:44.093Z,12.28
2022-09-28T19:12:13.042Z,12.24
2022-09-28T19:14:43.290Z,12.30
2022-09-28T19:17:12.370Z,12.37
2022-09-28T19:19:45.887Z,12.29
2022-09-28T19:22:16.522Z,12.19
2022-09-28T19:24:45.051Z,12.04
2022-09-28T19:27:16.507Z,11.99
2022-09-28T19:29:45.506Z,12.01
2022-09-28T19:32:19.457Z,12.03
2022-09-28T19:34:51.680Z,12.04
2022-09-28T19:37:21.710Z,12.03
2022-09-28T19:39:51.121Z,12.00
2022-09-28T19:42:19.029Z,12.03
2022-09-28T19:44:47.354Z,12.02
2022-09-28T19:47:21.442Z,11.99
2022-09-28T19:49:50.342Z,12.09
2022-09-28T19:52:18.162Z,12.13
2022-09-28T19:55:00.181Z,12.12
2022-09-28T19:57:31.630Z,12.12
2022-09-28T20:00:03.205Z,12.10
2022-09-28T20:02:34.706Z,12.06
2022-09-28T20:05:03.006Z,11.98
2022-09-28T20:07:32.884Z,11.88
2022-09-28T20:10:02.375Z,11.84
2022-09-28T20:12:30.131Z,11.82
2022-09-28T20:14:57.947Z,11.71
2022-09-28T20:17:25.737Z,11.50
2022-09-28T20:19:53.619Z,11.43
2022-09-28T20:22:21.623Z,11.44
2022-09-28T20:24:49.996Z,11.34
2022-09-28T20:27:22.131Z,11.34
2022-09-28T20:29:56.304Z,11.35
2022-09-28T20:32:24.072Z,11.28
2022-09-28T20:34:51.977Z,11.25
2022-09-28T20:37:19.753Z,11.24
2022-09-28T20:39:48.054Z,11.21
2022-09-28T20:42:16.627Z,11.12
2022-09-28T20:44:46.069Z,11.10
2022-09-28T20:47:13.923Z,11.12
2022-09-28T20:49:41.861Z,11.17
2022-09-28T20:52:09.994Z,11.15
2022-09-28T20:54:39.253Z,11.14
2022-09-28T20:57:17.298Z,11.18
2022-09-28T20:59:53.593Z,11.23
2022-09-28T21:02:23.134Z,11.24
2022-09-28T21:04:51.170Z,11.29
2022-09-28T21:07:19.124Z,11.31
2022-09-28T21:09:48.857Z,11.40
2022-09-28T21:12:18.018Z,11.45
2022-09-28T21:14:47.499Z,11.44
2022-09-28T21:17:15.285Z,11.40
2022-09-28T21:19:43.737Z,11.46
2022-09-28T21:22:11.983Z,11.49
2022-09-28T21:24:40.020Z,11.58
2022-09-28T21:27:07.802Z,11.63
2022-09-28T21:29:36.617Z,11.65
2022-09-28T21:32:08.225Z,11.71
2022-09-28T21:34:36.427Z,11.72
2022-09-28T21:37:04.198Z,11.70
2022-09-28T21:39:31.983Z,11.71
2022-09-28T21:41:59.725Z,11.62
2022-09-28T21:44:27.493Z,11.59
2022-09-28T21:46:55.373Z,11.63
2022-09-28T21:49:24.761Z,11.66
2022-09-28T21:51:52.514Z,11.63
2022-09-28T21:54:21.317Z,11.62
2022-09-28T21:56:49.367Z,11.65
2022-09-28T21:59:17.384Z,11.72
2022-09-28T22:01:45.364Z,11.78
2022-09-28T22:04:15.798Z,11.77
2022-09-28T22:06:45.306Z,11.72
2022-09-28T22:09:13.420Z,11.70
2022-09-28T22:11:41.318Z,11.66
2022-09-28T22:14:10.758Z,11.56
2022-09-28T22:16:39.373Z,11.59
2022-09-28T22:19:07.219Z,11.63
2022-09-28T22:21:35.431Z,11.70
2022-09-28T22:24:07.249Z,11.76
2022-09-28T22:26:37.111Z,11.84
2022-09-28T22:29:07.308Z,11.78
2022-09-28T22:31:38.025Z,11.69
2022-09-28T22:34:09.726Z,11.68
2022-09-28T22:36:37.531Z,11.63
2022-09-28T22:39:06.769Z,11.67
2022-09-28T22:41:35.465Z,11.70
2022-09-28T22:44:03.382Z,11.66
2022-09-28T22:46:32.420Z,11.68
2022-09-28T22:49:00.783Z,11.63
2022-09-28T22:51:30.841Z,11.67
2022-09-28T22:53:58.767Z,11.58
2022-09-28T22:56:28.968Z,11.56
2022-09-28T22:58:57.463Z,11.47
2022-09-28T23:01:28.419Z,11.46
2022-09-28T23:03:58.833Z,11.38
2022-09-28T23:06:30.760Z,11.36
2022-09-28T23:08:59.409Z,11.22
2022-09-28T23:11:29.532Z,11.11
2022-09-28T23:13:59.253Z,11.13
2022-09-28T23:16:27.927Z,11.06
2022-09-28T23:18:56.414Z,11.03
2022-09-28T23:21:27.654Z,10.97
2022-09-28T23:23:58.310Z,10.98
2022-09-28T23:26:31.033Z,10.93
2022-09-28T23:29:00.371Z,10.84
2022-09-28T23:31:31.431Z,10.81
2022-09-28T23:34:02.419Z,10.78
2022-09-28T23:36:31.129Z,10.68
2022-09-28T23:38:59.473Z,10.67
2022-09-28T23:41:30.771Z,10.66
2022-09-28T23:44:00.654Z,10.69
2022-09-28T23:46:28.850Z,10.75
2022-09-28T23:48:56.671Z,10.77
2022-09-28T23:51:24.823Z,10.83
2022-09-28T23:53:52.962Z,10.87
2022-09-28T23:56:22.273Z,10.95
2022-09-28T23:58:51.411Z,10.98
